Terminal Aerodrome Forecast
Issued by NWS Detroit/Pontiac, MI

Home | Current Version | Previous Version | Text Only | Print | Product List | Glossary On
Versions: 1 2 3 4 5 6 7 8 9 10 11 12 13
000
FTUS43 KDTX 271720
TAFFNT
TAF
KFNT 271720Z 2718/2818 25015G25KT P6SM BKN045 OVC120
     FM272300 22010KT P6SM BKN040 OVC060
     FM280400 18004KT P6SM BKN035 OVC100 PROB30 2804/2808 5SM -SHRA
     FM280800 14004KT P6SM BKN100
     FM281500 08008KT P6SM BKN100=

USA.gov is the U.S. government's official web portal to all federal, state and local government web resources and services.